TFM - Tactical Decision Aid (Experimental) INFO Settings
ID: Runway Winds: CIG/VIS Threshold: METAR Board: Map:

KDFW - Dallas/Fort Worth Intl

Updated at: 0353 UTC 23 Apr 2018
Latest TAF at: 0248 UTC 23 Apr 2018

TAF Board

Time0253Z23/04Z23/05Z23/06Z23/07Z23/08Z23/09Z23/10Z23/11Z23/12Z23/13Z23/14Z23/15Z23/16Z
TypeOBSPRVLPRVLPRVLPRVLPRVLPRVLPRVLPRVLPRVLPRVLPRVLPRVLPRVL
VIS10>6>6>6>6>6>6>6>6>6>6>6>6>6
CIG------------------2525255050
CoverFEWSCTSCTSCTSCTSCTSCTSCTSCTBKNBKNBKNBKNBKN
FltCatVFRVFRVFRVFRVFRVFRVFRVFRVFRMVFRMVFRMVFRVFRVFR
WX----------------------------
WDir310330330330330330330330330340340340330330
WSpd9888888881010101212
WGst----------------------------
TAF
KDFW 230248Z 2303/2406 33008KT P6SM SCT060
  FM231200 34010KT P6SM BKN025
  FM231500 33012KT P6SM BKN050
  FM232200 34010KT P6SM SCT250


METAR
KDFW 230253Z 31009KT 10SM FEW060 FEW250 16/08 A3003 RMK AO2 SLP165 T01610078 53006 $

TAF/METAR Board Legend

Potential Impact
  None Marginal Slight Moderate High
Visibility (sm) >5 3≤X≤5 1≤X<3 0.5≤X<1 <0.5
Ceiling (100 ft) >30 10≤X≤30 4≤X<10 2≤X<4 <2
Wind Speed (kt) <10 10≤X<20 20≤X<30 ≥30
Wind Gust (kt) <15 15≤X<25 25≤X<35 ≥35
Weather No Wx Reported VCTS -TS,-FZRA TS,FZRA +TS,+FZRA




Page loaded:  03:53 UTC  |   08:53 PM Pacific  |   09:53 PM Mountain  |   10:53 PM Central  |   11:53 PM Eastern